sensor_id;sensor_type;location;lat;lon;timestamp;temperature;humidity
28845;DHT22;15976;47.938;7.758;2023-09-19T00:00:35;19.10;77.30
28845;DHT22;15976;47.938;7.758;2023-09-19T00:03:03;19.10;77.30
28845;DHT22;15976;47.938;7.758;2023-09-19T00:05:34;19.10;77.00
28845;DHT22;15976;47.938;7.758;2023-09-19T00:08:02;19.10;76.80
28845;DHT22;15976;47.938;7.758;2023-09-19T00:10:33;19.10;76.40
28845;DHT22;15976;47.938;7.758;2023-09-19T00:13:03;19.10;76.00
28845;DHT22;15976;47.938;7.758;2023-09-19T00:15:40;19.10;76.10
28845;DHT22;15976;47.938;7.758;2023-09-19T00:18:07;19.00;76.10
28845;DHT22;15976;47.938;7.758;2023-09-19T00:20:38;19.00;76.20
28845;DHT22;15976;47.938;7.758;2023-09-19T00:23:06;19.00;76.20
28845;DHT22;15976;47.938;7.758;2023-09-19T00:25:36;19.00;76.00
28845;DHT22;15976;47.938;7.758;2023-09-19T00:28:05;18.90;75.60
28845;DHT22;15976;47.938;7.758;2023-09-19T00:30:34;18.90;75.40
28845;DHT22;15976;47.938;7.758;2023-09-19T00:33:01;18.90;75.00
28845;DHT22;15976;47.938;7.758;2023-09-19T00:35:33;18.90;74.90
28845;DHT22;15976;47.938;7.758;2023-09-19T00:38:00;18.90;74.80
28845;DHT22;15976;47.938;7.758;2023-09-19T00:40:27;18.80;74.70
28845;DHT22;15976;47.938;7.758;2023-09-19T00:42:57;18.80;74.60
28845;DHT22;15976;47.938;7.758;2023-09-19T00:45:27;18.80;74.60
28845;DHT22;15976;47.938;7.758;2023-09-19T00:47:55;18.80;74.50
28845;DHT22;15976;47.938;7.758;2023-09-19T00:50:25;18.80;74.30
28845;DHT22;15976;47.938;7.758;2023-09-19T00:52:55;18.80;74.00
28845;DHT22;15976;47.938;7.758;2023-09-19T00:55:25;18.80;73.90
28845;DHT22;15976;47.938;7.758;2023-09-19T00:57:55;18.80;73.80
28845;DHT22;15976;47.938;7.758;2023-09-19T01:00:23;18.80;73.50
28845;DHT22;15976;47.938;7.758;2023-09-19T01:02:51;18.90;73.40
28845;DHT22;15976;47.938;7.758;2023-09-19T01:05:19;18.90;73.20
28845;DHT22;15976;47.938;7.758;2023-09-19T01:07:46;18.90;73.00
28845;DHT22;15976;47.938;7.758;2023-09-19T01:10:17;18.90;72.90
28845;DHT22;15976;47.938;7.758;2023-09-19T01:15:59;18.90;72.40
28845;DHT22;15976;47.938;7.758;2023-09-19T01:24:30;18.90;71.80
28845;DHT22;15976;47.938;7.758;2023-09-19T01:27:34;19.00;71.80
28845;DHT22;15976;47.938;7.758;2023-09-19T01:30:17;19.00;71.70
28845;DHT22;15976;47.938;7.758;2023-09-19T01:32:52;19.00;71.60
28845;DHT22;15976;47.938;7.758;2023-09-19T01:35:19;19.00;71.50
28845;DHT22;15976;47.938;7.758;2023-09-19T01:37:46;19.00;71.40
28845;DHT22;15976;47.938;7.758;2023-09-19T01:40:16;19.00;71.30
28845;DHT22;15976;47.938;7.758;2023-09-19T01:43:02;19.00;71.10
28845;DHT22;15976;47.938;7.758;2023-09-19T01:45:37;19.00;71.00
28845;DHT22;15976;47.938;7.758;2023-09-19T01:51:34;19.00;71.00
28845;DHT22;15976;47.938;7.758;2023-09-19T01:54:10;19.00;71.10
28845;DHT22;15976;47.938;7.758;2023-09-19T01:56:53;19.00;71.10
28845;DHT22;15976;47.938;7.758;2023-09-19T01:59:26;19.00;71.00
28845;DHT22;15976;47.938;7.758;2023-09-19T02:01:55;19.00;70.90
28845;DHT22;15976;47.938;7.758;2023-09-19T02:04:23;19.00;70.70
28845;DHT22;15976;47.938;7.758;2023-09-19T02:06:50;18.90;70.80
28845;DHT22;15976;47.938;7.758;2023-09-19T02:09:18;18.90;70.90
28845;DHT22;15976;47.938;7.758;2023-09-19T02:11:45;19.00;71.00
28845;DHT22;15976;47.938;7.758;2023-09-19T02:14:13;18.90;71.10
28845;DHT22;15976;47.938;7.758;2023-09-19T02:16:40;18.90;71.30
28845;DHT22;15976;47.938;7.758;2023-09-19T02:19:08;18.90;71.50
28845;DHT22;15976;47.938;7.758;2023-09-19T02:21:36;18.90;71.70
28845;DHT22;15976;47.938;7.758;2023-09-19T02:24:03;18.90;71.70
28845;DHT22;15976;47.938;7.758;2023-09-19T02:26:30;18.90;71.80
28845;DHT22;15976;47.938;7.758;2023-09-19T02:28:57;18.90;72.00
28845;DHT22;15976;47.938;7.758;2023-09-19T02:31:24;18.90;72.00
28845;DHT22;15976;47.938;7.758;2023-09-19T02:33:53;18.90;72.10
28845;DHT22;15976;47.938;7.758;2023-09-19T02:36:21;18.90;72.20
28845;DHT22;15976;47.938;7.758;2023-09-19T02:38:49;18.90;72.30
28845;DHT22;15976;47.938;7.758;2023-09-19T02:41:16;18.90;72.20
28845;DHT22;15976;47.938;7.758;2023-09-19T02:43:43;18.80;72.70
28845;DHT22;15976;47.938;7.758;2023-09-19T02:46:11;18.80;73.00
28845;DHT22;15976;47.938;7.758;2023-09-19T02:48:39;18.70;73.20
28845;DHT22;15976;47.938;7.758;2023-09-19T02:51:06;18.70;73.40
28845;DHT22;15976;47.938;7.758;2023-09-19T02:53:33;18.70;73.30
28845;DHT22;15976;47.938;7.758;2023-09-19T02:56:00;18.70;73.20
28845;DHT22;15976;47.938;7.758;2023-09-19T02:58:28;18.70;73.90
28845;DHT22;15976;47.938;7.758;2023-09-19T03:00:57;18.70;73.10
28845;DHT22;15976;47.938;7.758;2023-09-19T03:03:25;18.70;73.00
28845;DHT22;15976;47.938;7.758;2023-09-19T03:05:53;18.60;72.90
28845;DHT22;15976;47.938;7.758;2023-09-19T03:08:22;18.60;72.80
28845;DHT22;15976;47.938;7.758;2023-09-19T03:10:49;18.70;72.90
28845;DHT22;15976;47.938;7.758;2023-09-19T03:13:16;18.60;72.90
28845;DHT22;15976;47.938;7.758;2023-09-19T03:15:43;18.60;73.60
28845;DHT22;15976;47.938;7.758;2023-09-19T03:18:15;18.60;72.70
28845;DHT22;15976;47.938;7.758;2023-09-19T03:20:42;18.60;72.80
28845;DHT22;15976;47.938;7.758;2023-09-19T03:23:09;18.60;72.70
28845;DHT22;15976;47.938;7.758;2023-09-19T03:25:37;18.60;72.80
28845;DHT22;15976;47.938;7.758;2023-09-19T03:28:04;18.60;72.80
28845;DHT22;15976;47.938;7.758;2023-09-19T03:30:33;18.60;72.80
28845;DHT22;15976;47.938;7.758;2023-09-19T03:33:04;18.60;72.90
28845;DHT22;15976;47.938;7.758;2023-09-19T03:35:33;18.60;73.00
28845;DHT22;15976;47.938;7.758;2023-09-19T03:38:01;18.60;73.10
28845;DHT22;15976;47.938;7.758;2023-09-19T03:40:30;18.60;73.20
28845;DHT22;15976;47.938;7.758;2023-09-19T03:43:00;18.60;73.40
28845;DHT22;15976;47.938;7.758;2023-09-19T03:45:27;18.60;73.50
28845;DHT22;15976;47.938;7.758;2023-09-19T03:47:54;18.60;74.40
28845;DHT22;15976;47.938;7.758;2023-09-19T03:50:23;18.50;73.80
28845;DHT22;15976;47.938;7.758;2023-09-19T03:52:56;18.50;74.00
28845;DHT22;15976;47.938;7.758;2023-09-19T03:55:23;18.40;74.20
28845;DHT22;15976;47.938;7.758;2023-09-19T03:57:50;18.40;74.50
28845;DHT22;15976;47.938;7.758;2023-09-19T04:00:18;18.40;75.40
28845;DHT22;15976;47.938;7.758;2023-09-19T04:02:49;18.30;74.70
28845;DHT22;15976;47.938;7.758;2023-09-19T04:05:16;18.30;74.90
28845;DHT22;15976;47.938;7.758;2023-09-19T04:07:45;18.30;75.00
28845;DHT22;15976;47.938;7.758;2023-09-19T04:10:13;18.40;75.10
28845;DHT22;15976;47.938;7.758;2023-09-19T04:12:53;18.40;75.10
28845;DHT22;15976;47.938;7.758;2023-09-19T04:15:22;18.40;75.10
28845;DHT22;15976;47.938;7.758;2023-09-19T04:17:52;18.40;75.10
28845;DHT22;15976;47.938;7.758;2023-09-19T04:20:19;18.40;75.20
28845;DHT22;15976;47.938;7.758;2023-09-19T04:22:47;18.40;75.10
28845;DHT22;15976;47.938;7.758;2023-09-19T04:25:14;18.40;75.20
28845;DHT22;15976;47.938;7.758;2023-09-19T04:27:41;18.50;75.20
28845;DHT22;15976;47.938;7.758;2023-09-19T04:30:08;18.40;75.20
28845;DHT22;15976;47.938;7.758;2023-09-19T04:32:39;18.50;75.20
28845;DHT22;15976;47.938;7.758;2023-09-19T04:35:10;18.50;75.20
28845;DHT22;15976;47.938;7.758;2023-09-19T04:37:41;18.50;75.20
28845;DHT22;15976;47.938;7.758;2023-09-19T04:40:11;18.40;75.90
28845;DHT22;15976;47.938;7.758;2023-09-19T04:42:44;18.50;75.20
28845;DHT22;15976;47.938;7.758;2023-09-19T04:45:13;18.40;75.10
28845;DHT22;15976;47.938;7.758;2023-09-19T04:47:40;18.50;75.20
28845;DHT22;15976;47.938;7.758;2023-09-19T04:50:10;18.40;75.90
28845;DHT22;15976;47.938;7.758;2023-09-19T04:52:41;18.40;75.20
28845;DHT22;15976;47.938;7.758;2023-09-19T04:55:13;18.40;75.20
28845;DHT22;15976;47.938;7.758;2023-09-19T04:57:48;18.30;75.30
28845;DHT22;15976;47.938;7.758;2023-09-19T05:00:17;18.30;75.40
28845;DHT22;15976;47.938;7.758;2023-09-19T05:02:52;18.30;75.50
28845;DHT22;15976;47.938;7.758;2023-09-19T05:05:19;18.30;75.60
28845;DHT22;15976;47.938;7.758;2023-09-19T05:07:47;18.30;75.70
28845;DHT22;15976;47.938;7.758;2023-09-19T05:10:14;18.30;75.70
28845;DHT22;15976;47.938;7.758;2023-09-19T05:12:43;18.30;75.60
28845;DHT22;15976;47.938;7.758;2023-09-19T05:15:12;18.30;75.50
28845;DHT22;15976;47.938;7.758;2023-09-19T05:17:41;18.40;75.50
28845;DHT22;15976;47.938;7.758;2023-09-19T05:20:08;18.40;75.50
28845;DHT22;15976;47.938;7.758;2023-09-19T05:23:08;18.40;75.60
28845;DHT22;15976;47.938;7.758;2023-09-19T05:25:36;18.40;75.70
28845;DHT22;15976;47.938;7.758;2023-09-19T05:28:08;18.40;75.60
28845;DHT22;15976;47.938;7.758;2023-09-19T05:30:36;18.40;75.60
28845;DHT22;15976;47.938;7.758;2023-09-19T05:33:04;18.40;75.60
28845;DHT22;15976;47.938;7.758;2023-09-19T05:35:31;18.40;75.60
28845;DHT22;15976;47.938;7.758;2023-09-19T05:37:59;18.40;75.40
28845;DHT22;15976;47.938;7.758;2023-09-19T05:40:26;18.40;75.40
28845;DHT22;15976;47.938;7.758;2023-09-19T05:42:54;18.50;75.40
28845;DHT22;15976;47.938;7.758;2023-09-19T05:45:21;18.50;75.30
28845;DHT22;15976;47.938;7.758;2023-09-19T05:47:52;18.50;75.30
28845;DHT22;15976;47.938;7.758;2023-09-19T05:50:22;18.50;75.30
28845;DHT22;15976;47.938;7.758;2023-09-19T05:52:52;18.50;75.30
28845;DHT22;15976;47.938;7.758;2023-09-19T05:55:20;18.50;75.40
28845;DHT22;15976;47.938;7.758;2023-09-19T05:57:51;18.50;75.40
28845;DHT22;15976;47.938;7.758;2023-09-19T06:00:23;18.60;75.40
28845;DHT22;15976;47.938;7.758;2023-09-19T06:05:19;18.60;75.40
28845;DHT22;15976;47.938;7.758;2023-09-19T06:07:46;18.60;75.20
28845;DHT22;15976;47.938;7.758;2023-09-19T06:10:14;18.60;75.10
28845;DHT22;15976;47.938;7.758;2023-09-19T06:12:45;18.60;75.00
28845;DHT22;15976;47.938;7.758;2023-09-19T06:15:14;18.60;74.90
28845;DHT22;15976;47.938;7.758;2023-09-19T06:17:51;18.60;74.90
28845;DHT22;15976;47.938;7.758;2023-09-19T06:20:18;18.60;75.00
28845;DHT22;15976;47.938;7.758;2023-09-19T06:22:46;18.60;74.80
28845;DHT22;15976;47.938;7.758;2023-09-19T06:25:15;18.60;74.80
28845;DHT22;15976;47.938;7.758;2023-09-19T06:27:53;18.60;74.70
28845;DHT22;15976;47.938;7.758;2023-09-19T06:30:24;18.70;74.80
28845;DHT22;15976;47.938;7.758;2023-09-19T06:32:58;18.70;74.50
28845;DHT22;15976;47.938;7.758;2023-09-19T06:35:28;18.70;74.40
28845;DHT22;15976;47.938;7.758;2023-09-19T06:37:56;18.80;74.20
28845;DHT22;15976;47.938;7.758;2023-09-19T06:40:25;18.70;74.20
28845;DHT22;15976;47.938;7.758;2023-09-19T06:42:53;18.80;74.20
28845;DHT22;15976;47.938;7.758;2023-09-19T06:45:21;18.80;74.00
28845;DHT22;15976;47.938;7.758;2023-09-19T06:47:50;18.90;74.00
28845;DHT22;15976;47.938;7.758;2023-09-19T06:50:20;18.90;73.80
28845;DHT22;15976;47.938;7.758;2023-09-19T06:52:51;19.00;73.70
28845;DHT22;15976;47.938;7.758;2023-09-19T06:55:19;19.10;73.60
28845;DHT22;15976;47.938;7.758;2023-09-19T06:57:47;19.10;73.50
28845;DHT22;15976;47.938;7.758;2023-09-19T07:00:16;19.10;73.50
28845;DHT22;15976;47.938;7.758;2023-09-19T07:02:54;19.10;73.40
28845;DHT22;15976;47.938;7.758;2023-09-19T07:05:21;19.10;73.50
28845;DHT22;15976;47.938;7.758;2023-09-19T07:07:48;19.10;73.60
28845;DHT22;15976;47.938;7.758;2023-09-19T07:10:16;19.20;73.50
28845;DHT22;15976;47.938;7.758;2023-09-19T07:12:45;19.30;73.10
28845;DHT22;15976;47.938;7.758;2023-09-19T07:15:12;19.40;72.80
28845;DHT22;15976;47.938;7.758;2023-09-19T07:17:39;19.50;72.40
28845;DHT22;15976;47.938;7.758;2023-09-19T07:20:07;19.50;72.20
28845;DHT22;15976;47.938;7.758;2023-09-19T07:22:35;19.50;72.00
28845;DHT22;15976;47.938;7.758;2023-09-19T07:25:06;19.60;71.80
28845;DHT22;15976;47.938;7.758;2023-09-19T07:27:33;19.60;71.40
28845;DHT22;15976;47.938;7.758;2023-09-19T07:30:00;19.60;71.40
28845;DHT22;15976;47.938;7.758;2023-09-19T07:32:27;19.80;71.60
28845;DHT22;15976;47.938;7.758;2023-09-19T07:34:54;20.10;70.20
28845;DHT22;15976;47.938;7.758;2023-09-19T07:37:22;20.30;69.00
28845;DHT22;15976;47.938;7.758;2023-09-19T07:39:52;20.30;68.60
28845;DHT22;15976;47.938;7.758;2023-09-19T07:42:19;20.30;68.60
28845;DHT22;15976;47.938;7.758;2023-09-19T07:44:46;20.20;68.60
28845;DHT22;15976;47.938;7.758;2023-09-19T07:47:16;20.20;68.70
28845;DHT22;15976;47.938;7.758;2023-09-19T07:49:46;20.20;68.40
28845;DHT22;15976;47.938;7.758;2023-09-19T07:52:15;20.20;68.20
28845;DHT22;15976;47.938;7.758;2023-09-19T07:54:42;20.30;68.00
28845;DHT22;15976;47.938;7.758;2023-09-19T07:57:11;20.50;67.20
28845;DHT22;15976;47.938;7.758;2023-09-19T07:59:38;20.70;66.70
28845;DHT22;15976;47.938;7.758;2023-09-19T08:02:05;21.00;65.90
28845;DHT22;15976;47.938;7.758;2023-09-19T08:04:35;21.30;64.50
28845;DHT22;15976;47.938;7.758;2023-09-19T08:07:03;21.30;64.20
28845;DHT22;15976;47.938;7.758;2023-09-19T08:09:31;21.40;63.50
28845;DHT22;15976;47.938;7.758;2023-09-19T08:12:00;21.40;63.30
28845;DHT22;15976;47.938;7.758;2023-09-19T08:14:29;21.30;63.30
28845;DHT22;15976;47.938;7.758;2023-09-19T08:16:59;21.00;63.60
28845;DHT22;15976;47.938;7.758;2023-09-19T08:19:27;20.90;64.10
28845;DHT22;15976;47.938;7.758;2023-09-19T08:21:58;21.00;64.20
28845;DHT22;15976;47.938;7.758;2023-09-19T08:24:29;21.10;64.10
28845;DHT22;15976;47.938;7.758;2023-09-19T08:26:57;21.20;63.80
28845;DHT22;15976;47.938;7.758;2023-09-19T08:29:25;21.30;63.60
28845;DHT22;15976;47.938;7.758;2023-09-19T08:31:55;21.40;63.30
28845;DHT22;15976;47.938;7.758;2023-09-19T08:34:24;21.40;62.70
28845;DHT22;15976;47.938;7.758;2023-09-19T08:36:54;21.50;62.50
28845;DHT22;15976;47.938;7.758;2023-09-19T08:39:25;21.50;62.40
28845;DHT22;15976;47.938;7.758;2023-09-19T08:41:59;21.70;62.30
28845;DHT22;15976;47.938;7.758;2023-09-19T08:44:27;21.70;61.60
28845;DHT22;15976;47.938;7.758;2023-09-19T08:47:14;21.80;61.10
28845;DHT22;15976;47.938;7.758;2023-09-19T08:52:25;21.90;60.60
28845;DHT22;15976;47.938;7.758;2023-09-19T08:54:59;22.10;60.40
28845;DHT22;15976;47.938;7.758;2023-09-19T08:57:36;22.20;59.80
28845;DHT22;15976;47.938;7.758;2023-09-19T09:00:08;22.50;59.80
28845;DHT22;15976;47.938;7.758;2023-09-19T09:02:39;22.70;59.20
28845;DHT22;15976;47.938;7.758;2023-09-19T09:05:10;22.80;58.60
28845;DHT22;15976;47.938;7.758;2023-09-19T09:07:38;22.70;58.50
28845;DHT22;15976;47.938;7.758;2023-09-19T09:10:07;22.60;58.50
28845;DHT22;15976;47.938;7.758;2023-09-19T09:12:35;22.50;58.80
28845;DHT22;15976;47.938;7.758;2023-09-19T09:15:07;22.40;58.60
28845;DHT22;15976;47.938;7.758;2023-09-19T09:17:39;22.40;58.90
28845;DHT22;15976;47.938;7.758;2023-09-19T09:20:07;22.40;59.60
28845;DHT22;15976;47.938;7.758;2023-09-19T09:22:37;22.20;58.80
28845;DHT22;15976;47.938;7.758;2023-09-19T09:25:07;22.00;58.80
28845;DHT22;15976;47.938;7.758;2023-09-19T09:27:35;21.70;59.40
28845;DHT22;15976;47.938;7.758;2023-09-19T09:30:02;21.50;59.30
28845;DHT22;15976;47.938;7.758;2023-09-19T09:32:30;21.40;59.60
28845;DHT22;15976;47.938;7.758;2023-09-19T09:35:06;21.50;59.80
28845;DHT22;15976;47.938;7.758;2023-09-19T09:37:36;21.50;59.50
28845;DHT22;15976;47.938;7.758;2023-09-19T09:40:06;21.70;59.20
28845;DHT22;15976;47.938;7.758;2023-09-19T09:42:39;21.90;58.50
28845;DHT22;15976;47.938;7.758;2023-09-19T09:47:47;22.10;57.20
28845;DHT22;15976;47.938;7.758;2023-09-19T09:50:28;22.10;57.00
28845;DHT22;15976;47.938;7.758;2023-09-19T09:52:56;22.10;57.10
28845;DHT22;15976;47.938;7.758;2023-09-19T09:55:57;22.20;57.10
28845;DHT22;15976;47.938;7.758;2023-09-19T09:58:24;22.50;57.10
28845;DHT22;15976;47.938;7.758;2023-09-19T10:00:56;22.80;57.00
28845;DHT22;15976;47.938;7.758;2023-09-19T10:03:37;23.10;56.50
28845;DHT22;15976;47.938;7.758;2023-09-19T10:06:14;23.40;56.10
28845;DHT22;15976;47.938;7.758;2023-09-19T10:09:04;23.60;55.10
28845;DHT22;15976;47.938;7.758;2023-09-19T10:14:15;23.70;54.70
28845;DHT22;15976;47.938;7.758;2023-09-19T10:16:47;23.80;54.50
28845;DHT22;15976;47.938;7.758;2023-09-19T10:19:23;23.90;54.30
28845;DHT22;15976;47.938;7.758;2023-09-19T10:21:54;24.00;53.90
28845;DHT22;15976;47.938;7.758;2023-09-19T10:24:23;24.00;53.90
28845;DHT22;15976;47.938;7.758;2023-09-19T10:26:53;24.00;53.50
28845;DHT22;15976;47.938;7.758;2023-09-19T10:29:22;23.90;53.50
28845;DHT22;15976;47.938;7.758;2023-09-19T10:31:52;23.90;53.50
28845;DHT22;15976;47.938;7.758;2023-09-19T10:34:22;23.90;53.40
28845;DHT22;15976;47.938;7.758;2023-09-19T10:36:51;23.90;53.40
28845;DHT22;15976;47.938;7.758;2023-09-19T10:39:19;24.00;53.30
28845;DHT22;15976;47.938;7.758;2023-09-19T10:41:55;23.90;53.30
28845;DHT22;15976;47.938;7.758;2023-09-19T10:44:26;24.00;54.40
28845;DHT22;15976;47.938;7.758;2023-09-19T10:46:53;24.20;53.90
28845;DHT22;15976;47.938;7.758;2023-09-19T10:49:21;24.30;53.60
28845;DHT22;15976;47.938;7.758;2023-09-19T10:51:52;24.40;53.80
28845;DHT22;15976;47.938;7.758;2023-09-19T10:54:23;24.40;53.70
28845;DHT22;15976;47.938;7.758;2023-09-19T10:56:54;24.50;53.70
28845;DHT22;15976;47.938;7.758;2023-09-19T10:59:21;24.50;53.20
28845;DHT22;15976;47.938;7.758;2023-09-19T11:01:50;24.50;52.90
28845;DHT22;15976;47.938;7.758;2023-09-19T11:04:31;24.70;52.70
28845;DHT22;15976;47.938;7.758;2023-09-19T11:07:11;25.00;52.10
28845;DHT22;15976;47.938;7.758;2023-09-19T11:09:53;25.20;51.70
28845;DHT22;15976;47.938;7.758;2023-09-19T11:16:33;25.20;50.50
28845;DHT22;15976;47.938;7.758;2023-09-19T11:24:28;25.00;49.50
28845;DHT22;15976;47.938;7.758;2023-09-19T11:27:11;24.90;48.50
28845;DHT22;15976;47.938;7.758;2023-09-19T11:29:40;24.90;48.70
28845;DHT22;15976;47.938;7.758;2023-09-19T11:32:07;25.10;48.30
28845;DHT22;15976;47.938;7.758;2023-09-19T11:42:45;25.20;47.10
28845;DHT22;15976;47.938;7.758;2023-09-19T11:48:24;25.50;46.60
28845;DHT22;15976;47.938;7.758;2023-09-19T11:50:54;25.70;46.60
28845;DHT22;15976;47.938;7.758;2023-09-19T11:53:23;25.80;45.90
28845;DHT22;15976;47.938;7.758;2023-09-19T11:55:51;25.80;45.40
28845;DHT22;15976;47.938;7.758;2023-09-19T11:58:19;25.80;45.20
28845;DHT22;15976;47.938;7.758;2023-09-19T12:00:54;25.80;45.00
28845;DHT22;15976;47.938;7.758;2023-09-19T12:03:21;25.80;45.20
28845;DHT22;15976;47.938;7.758;2023-09-19T12:05:49;25.80;45.20
28845;DHT22;15976;47.938;7.758;2023-09-19T12:08:16;25.80;44.00
28845;DHT22;15976;47.938;7.758;2023-09-19T12:10:49;25.60;42.60
28845;DHT22;15976;47.938;7.758;2023-09-19T12:13:18;25.50;42.70
28845;DHT22;15976;47.938;7.758;2023-09-19T12:15:46;25.40;43.80
28845;DHT22;15976;47.938;7.758;2023-09-19T12:18:30;25.40;43.50
28845;DHT22;15976;47.938;7.758;2023-09-19T12:20:57;25.40;43.50
28845;DHT22;15976;47.938;7.758;2023-09-19T12:23:25;25.40;43.60
28845;DHT22;15976;47.938;7.758;2023-09-19T12:25:56;25.30;43.60
28845;DHT22;15976;47.938;7.758;2023-09-19T12:28:26;25.20;43.70
28845;DHT22;15976;47.938;7.758;2023-09-19T12:30:54;25.20;43.90
28845;DHT22;15976;47.938;7.758;2023-09-19T12:33:22;25.30;43.50
28845;DHT22;15976;47.938;7.758;2023-09-19T12:35:52;25.30;43.30
28845;DHT22;15976;47.938;7.758;2023-09-19T12:38:27;25.30;43.60
28845;DHT22;15976;47.938;7.758;2023-09-19T12:41:02;25.40;43.80
28845;DHT22;15976;47.938;7.758;2023-09-19T12:43:31;25.50;43.30
28845;DHT22;15976;47.938;7.758;2023-09-19T12:46:00;25.60;43.50
28845;DHT22;15976;47.938;7.758;2023-09-19T12:48:27;25.70;44.40
28845;DHT22;15976;47.938;7.758;2023-09-19T12:51:06;25.80;44.90
28845;DHT22;15976;47.938;7.758;2023-09-19T12:53:36;25.90;44.40
28845;DHT22;15976;47.938;7.758;2023-09-19T12:56:15;26.10;44.30
28845;DHT22;15976;47.938;7.758;2023-09-19T12:58:52;26.20;44.40
28845;DHT22;15976;47.938;7.758;2023-09-19T13:01:24;26.20;44.20
28845;DHT22;15976;47.938;7.758;2023-09-19T13:06:54;26.40;43.80
28845;DHT22;15976;47.938;7.758;2023-09-19T13:09:23;26.50;43.60
28845;DHT22;15976;47.938;7.758;2023-09-19T13:12:01;26.60;43.70
28845;DHT22;15976;47.938;7.758;2023-09-19T13:14:33;27.80;43.40
28845;DHT22;15976;47.938;7.758;2023-09-19T13:17:07;29.00;40.80
28845;DHT22;15976;47.938;7.758;2023-09-19T13:19:51;28.90;39.90
28845;DHT22;15976;47.938;7.758;2023-09-19T13:22:44;29.70;40.00
28845;DHT22;15976;47.938;7.758;2023-09-19T13:25:17;31.10;37.50
28845;DHT22;15976;47.938;7.758;2023-09-19T13:27:50;31.30;36.40
28845;DHT22;15976;47.938;7.758;2023-09-19T13:30:20;32.20;35.50
28845;DHT22;15976;47.938;7.758;2023-09-19T13:32:48;33.10;34.30
28845;DHT22;15976;47.938;7.758;2023-09-19T13:35:15;34.00;32.20
28845;DHT22;15976;47.938;7.758;2023-09-19T13:37:43;34.40;30.40
28845;DHT22;15976;47.938;7.758;2023-09-19T13:40:15;34.90;30.20
28845;DHT22;15976;47.938;7.758;2023-09-19T13:42:42;35.60;29.90
28845;DHT22;15976;47.938;7.758;2023-09-19T13:45:09;35.80;29.00
28845;DHT22;15976;47.938;7.758;2023-09-19T13:47:39;36.10;28.60
28845;DHT22;15976;47.938;7.758;2023-09-19T13:50:07;36.40;27.90
28845;DHT22;15976;47.938;7.758;2023-09-19T13:52:35;36.60;26.90
28845;DHT22;15976;47.938;7.758;2023-09-19T13:55:02;36.60;26.80
28845;DHT22;15976;47.938;7.758;2023-09-19T13:57:29;36.80;27.20
28845;DHT22;15976;47.938;7.758;2023-09-19T13:59:56;37.20;27.10
28845;DHT22;15976;47.938;7.758;2023-09-19T14:02:23;37.60;27.10
28845;DHT22;15976;47.938;7.758;2023-09-19T14:04:52;38.20;26.50
28845;DHT22;15976;47.938;7.758;2023-09-19T14:07:19;38.30;25.90
28845;DHT22;15976;47.938;7.758;2023-09-19T14:09:47;38.50;25.70
28845;DHT22;15976;47.938;7.758;2023-09-19T14:12:15;38.60;25.60
28845;DHT22;15976;47.938;7.758;2023-09-19T14:14:42;38.80;25.30
28845;DHT22;15976;47.938;7.758;2023-09-19T14:17:09;38.70;25.10
28845;DHT22;15976;47.938;7.758;2023-09-19T14:19:37;38.40;25.00
28845;DHT22;15976;47.938;7.758;2023-09-19T14:22:04;38.30;25.30
28845;DHT22;15976;47.938;7.758;2023-09-19T14:24:35;38.40;25.00
28845;DHT22;15976;47.938;7.758;2023-09-19T14:27:03;38.30;24.80
28845;DHT22;15976;47.938;7.758;2023-09-19T14:29:31;38.20;24.60
28845;DHT22;15976;47.938;7.758;2023-09-19T14:31:58;38.00;24.40
28845;DHT22;15976;47.938;7.758;2023-09-19T14:34:26;37.70;24.70
28845;DHT22;15976;47.938;7.758;2023-09-19T14:36:53;37.50;24.80
28845;DHT22;15976;47.938;7.758;2023-09-19T14:39:21;37.50;25.40
28845;DHT22;15976;47.938;7.758;2023-09-19T14:41:49;37.60;25.10
28845;DHT22;15976;47.938;7.758;2023-09-19T14:44:16;37.60;24.70
28845;DHT22;15976;47.938;7.758;2023-09-19T14:46:43;37.60;25.20
28845;DHT22;15976;47.938;7.758;2023-09-19T14:49:13;37.70;24.90
28845;DHT22;15976;47.938;7.758;2023-09-19T14:51:43;37.60;24.60
28845;DHT22;15976;47.938;7.758;2023-09-19T14:54:11;37.80;25.10
28845;DHT22;15976;47.938;7.758;2023-09-19T14:56:38;38.10;24.60
28845;DHT22;15976;47.938;7.758;2023-09-19T14:59:07;38.10;24.40
28845;DHT22;15976;47.938;7.758;2023-09-19T15:01:34;38.30;24.40
28845;DHT22;15976;47.938;7.758;2023-09-19T15:04:02;38.60;23.90
28845;DHT22;15976;47.938;7.758;2023-09-19T15:06:29;38.60;23.70
28845;DHT22;15976;47.938;7.758;2023-09-19T15:08:57;38.50;23.90
28845;DHT22;15976;47.938;7.758;2023-09-19T15:11:24;38.20;24.00
28845;DHT22;15976;47.938;7.758;2023-09-19T15:13:52;38.10;24.40
28845;DHT22;15976;47.938;7.758;2023-09-19T15:16:21;38.20;24.60
28845;DHT22;15976;47.938;7.758;2023-09-19T15:18:49;38.30;24.30
28845;DHT22;15976;47.938;7.758;2023-09-19T15:21:16;38.20;24.10
28845;DHT22;15976;47.938;7.758;2023-09-19T15:23:45;37.70;24.20
28845;DHT22;15976;47.938;7.758;2023-09-19T15:26:14;37.40;24.80
28845;DHT22;15976;47.938;7.758;2023-09-19T15:28:48;37.30;25.10
28845;DHT22;15976;47.938;7.758;2023-09-19T15:31:16;37.50;25.20
28845;DHT22;15976;47.938;7.758;2023-09-19T15:33:43;37.60;25.00
28845;DHT22;15976;47.938;7.758;2023-09-19T15:36:12;37.30;24.30
28845;DHT22;15976;47.938;7.758;2023-09-19T15:39:08;36.50;25.00
28845;DHT22;15976;47.938;7.758;2023-09-19T15:41:39;35.90;25.50
28845;DHT22;15976;47.938;7.758;2023-09-19T15:44:13;35.30;26.00
28845;DHT22;15976;47.938;7.758;2023-09-19T15:46:40;34.90;26.40
28845;DHT22;15976;47.938;7.758;2023-09-19T15:49:08;34.70;26.80
28845;DHT22;15976;47.938;7.758;2023-09-19T15:51:36;34.40;27.00
28845;DHT22;15976;47.938;7.758;2023-09-19T15:54:11;34.00;27.50
28845;DHT22;15976;47.938;7.758;2023-09-19T15:56:44;33.90;28.00
28845;DHT22;15976;47.938;7.758;2023-09-19T15:59:12;33.60;28.20
28845;DHT22;15976;47.938;7.758;2023-09-19T16:01:39;32.90;28.40
28845;DHT22;15976;47.938;7.758;2023-09-19T16:04:11;32.20;29.20
28845;DHT22;15976;47.938;7.758;2023-09-19T16:06:40;31.50;29.90
28845;DHT22;15976;47.938;7.758;2023-09-19T16:09:08;30.90;30.70
28845;DHT22;15976;47.938;7.758;2023-09-19T16:11:37;30.40;31.30
28845;DHT22;15976;47.938;7.758;2023-09-19T16:14:04;30.20;31.90
28845;DHT22;15976;47.938;7.758;2023-09-19T16:16:36;30.10;32.20
28845;DHT22;15976;47.938;7.758;2023-09-19T16:19:05;29.80;32.30
28845;DHT22;15976;47.938;7.758;2023-09-19T16:21:37;29.30;32.70
28845;DHT22;15976;47.938;7.758;2023-09-19T16:24:07;28.90;33.60
28845;DHT22;15976;47.938;7.758;2023-09-19T16:26:36;28.40;34.40
28845;DHT22;15976;47.938;7.758;2023-09-19T16:29:06;28.10;35.40
28845;DHT22;15976;47.938;7.758;2023-09-19T16:31:33;27.70;35.90
28845;DHT22;15976;47.938;7.758;2023-09-19T16:34:03;27.30;36.40